M I D A S
Marine Information and Data Acquisition System
Tripno 651 of the Zeeleeuw from 2004-02-18 07:12:45 to 2004-02-18 11:52:08
Back to CruiseResearch ActivitiesStationsMapUnderway DataData graphs

EquipmentUnitsComment
TimeDGPSUTC
LatitudeDGPSDM.mWGS84
LongitudeDGPSDM.mWGS84
HeadingGyrodeg 
SOGDGPSknotsSpeed over ground
COGDGPSdegCourse over ground
DepthEcho soundermeters200 kHz
Missing or incorrect values are displayed as -999
Navigation data collected by the RV Zeeleeuw from 2004-02-18 07:12:45 to 2004-02-18 11:52:08
Time Latitude Longitude Heading SOG COG Depth
2004-02-18 07:13:48 51°13.592 2°56.105 115.8 0.8 294 7.2
2004-02-18 07:14:50 51°13.612 2°56.028 119.6 4.1 293 -999
2004-02-18 07:15:49 51°13.648 2°55.949 129.9 2.1 308 9.7
2004-02-18 07:16:50 51°13.673 2°55.865 110.5 4.2 286 -999
2004-02-18 07:17:50 51°13.688 2°55.755 107.6 2.8 277 -999
2004-02-18 07:18:49 51°13.695 2°55.782 50.7 0.6 226 12.7
2004-02-18 07:19:49 51°13.712 2°55.77 356.8 4.3 344 13.3
2004-02-18 07:20:49 51°13.785 2°55.678 326.6 6.7 323 9.7
2004-02-18 07:21:49 51°13.888 2°55.583 339.8 7.5 334 9.8
2004-02-18 07:22:48 51°14.013 2°55.494 341 8.7 335 10.2
2004-02-18 07:23:49 51°14.155 2°55.393 341.2 9.5 335 10.3
2004-02-18 07:24:48 51°14.286 2°55.224 317.1 11.2 310 10.7
2004-02-18 07:25:49 51°14.388 2°54.953 298.1 12.2 286 10.2
2004-02-18 07:26:48 51°14.389 2°54.645 268.3 10.3 259 10.5
2004-02-18 07:27:49 51°14.34 2°54.422 242.3 8.1 235 9.5
2004-02-18 07:28:48 51°14.282 2°54.239 256.4 7.8 248 9.3
2004-02-18 07:29:48 51°14.241 2°54.078 262.2 5.4 251 9.2
2004-02-18 07:30:49 51°14.22 2°53.963 275 3.8 255 9.4
2004-02-18 07:31:48 51°14.205 2°53.883 275.7 2.8 253 9.4
2004-02-18 07:32:49 51°14.167 2°53.744 251.9 9.6 248 9.6
2004-02-18 07:33:48 51°14.086 2°53.441 252.1 14.2 244 9.6
2004-02-18 07:34:48 51°13.97 2°53.101 247.5 14.7 243 9.8
2004-02-18 07:35:48 51°13.852 2°52.756 245.9 15 243 10.2
2004-02-18 07:36:48 51°13.734 2°52.408 246.9 15 241 10.5
2004-02-18 07:37:49 51°13.616 2°52.052 247.1 14.9 243 10.6
2004-02-18 07:38:49 51°13.494 2°51.706 246.6 15 240 10.6
2004-02-18 07:39:49 51°13.375 2°51.358 246 15 245 10.8
2004-02-18 07:40:48 51°13.263 2°51.016 246.8 14.7 243 11.1
2004-02-18 07:41:48 51°13.148 2°50.667 247.9 15 246 11.3
2004-02-18 07:42:48 51°13.031 2°50.318 248.2 14.8 243 11.5
2004-02-18 07:43:48 51°12.912 2°49.972 245.8 15 240 11.6
2004-02-18 07:44:49 51°12.797 2°49.618 247.9 14.9 242 11.7
2004-02-18 07:45:49 51°12.68 2°49.268 243.1 15.1 246 11.8
2004-02-18 07:46:49 51°12.555 2°48.93 246.6 14.7 236 12
2004-02-18 07:47:49 51°12.431 2°48.591 245.1 14.6 241 12.1
2004-02-18 07:48:48 51°12.312 2°48.261 245.1 14.8 245 12.2
2004-02-18 07:49:48 51°12.192 2°47.92 246 14.7 237 12.4
2004-02-18 07:50:48 51°12.072 2°47.582 245 14.8 241 12.4
2004-02-18 07:51:48 51°11.953 2°47.242 244.5 14.7 243 12.2
2004-02-18 07:52:48 51°11.832 2°46.906 243.5 14.9 238 12.1
2004-02-18 07:53:49 51°11.71 2°46.561 244.4 14.8 240 12.1
2004-02-18 07:54:48 51°11.591 2°46.229 243.9 15 242 11.9
2004-02-18 07:55:49 51°11.486 2°45.867 252.4 14.9 251 11.5
2004-02-18 07:56:48 51°11.391 2°45.509 253.6 14.8 249 11.7
2004-02-18 07:57:48 51°11.298 2°45.151 252.7 14.5 249 11.7
2004-02-18 07:58:48 51°11.21 2°44.791 253.3 14.9 249 11.7
2004-02-18 07:59:48 51°11.125 2°44.432 255.5 14.3 245 11.7
2004-02-18 08:00:49 51°11.048 2°44.061 257.3 14.7 256 11.7
2004-02-18 08:01:48 51°10.977 2°43.701 257.2 14.4 253 11.9
2004-02-18 08:02:48 51°10.906 2°43.334 257.8 14.5 255 12
2004-02-18 08:03:48 51°10.837 2°42.969 261.6 14.7 255 12.2
2004-02-18 08:04:48 51°10.774 2°42.601 259 14.2 252 12.3
2004-02-18 08:05:48 51°10.708 2°42.232 258 14.5 255 12.4
2004-02-18 08:06:49 51°10.642 2°41.855 257.5 14.8 253 12.3
2004-02-18 08:07:49 51°10.581 2°41.488 259.8 14.3 254 12.6
2004-02-18 08:08:49 51°10.518 2°41.125 259.2 14.1 254 12.5
2004-02-18 08:09:49 51°10.455 2°40.76 259.5 14.4 252 12.9
2004-02-18 08:10:48 51°10.392 2°40.401 258 14.2 254 13.3
2004-02-18 08:11:49 51°10.326 2°40.029 261.1 14.3 255 13.6
2004-02-18 08:12:49 51°10.261 2°39.662 261.1 14.3 258 14.2
2004-02-18 08:13:49 51°10.2 2°39.296 258.1 14.2 258 15.2
2004-02-18 08:14:48 51°10.138 2°38.94 259.1 14.2 257 15.6
2004-02-18 08:15:49 51°10.074 2°38.572 261.6 13.9 252 15.9
2004-02-18 08:16:49 51°10.011 2°38.209 261.2 14 254 17
2004-02-18 08:17:48 51°9.951 2°37.849 258.4 14.3 257 17.5
2004-02-18 08:18:49 51°9.895 2°37.477 263.8 14.2 259 17.6
2004-02-18 08:19:48 51°9.851 2°37.115 264.5 14.1 260 17.8
2004-02-18 08:20:49 51°9.8 2°36.793 251.3 8.4 240 17.9
2004-02-18 08:21:48 51°9.755 2°36.698 228.6 3.2 220 18.4
2004-02-18 08:22:49 51°9.73 2°36.674 250.7 0.7 142 18
2004-02-18 08:23:48 51°9.717 2°36.675 248.1 1.2 197 18.1
2004-02-18 08:24:48 51°9.702 2°36.658 261.6 1.3 227 17.8
2004-02-18 08:25:48 51°9.687 2°36.636 259.2 1.2 225 18
2004-02-18 08:26:49 51°9.672 2°36.612 262.7 1.2 227 18.1
2004-02-18 08:27:48 51°9.659 2°36.593 264.1 1.1 214 17.9
2004-02-18 08:28:48 51°9.647 2°36.577 267.9 0.9 217 18.1
2004-02-18 08:29:48 51°9.635 2°36.561 271.5 1 221 18
2004-02-18 08:30:48 51°9.624 2°36.546 275.8 1.1 215 18
2004-02-18 08:31:49 51°9.612 2°36.533 276.4 1 210 17.7
2004-02-18 08:32:48 51°9.602 2°36.522 276.5 0.8 217 18
2004-02-18 08:33:48 51°9.591 2°36.514 277 0.7 211 17.9
2004-02-18 08:34:49 51°9.579 2°36.506 275.9 0.7 207 18
2004-02-18 08:35:49 51°9.57 2°36.5 279.6 0.7 202 17.6
2004-02-18 08:36:49 51°9.559 2°36.494 279.1 0.8 191 17.9
2004-02-18 08:37:49 51°9.547 2°36.488 282 0.8 203 17.7
2004-02-18 08:38:48 51°9.537 2°36.481 285.7 0.5 200 18.1
2004-02-18 08:39:48 51°9.527 2°36.475 288.1 0.8 209 17.6
2004-02-18 08:40:49 51°9.516 2°36.471 286.2 0.9 190 17.6
2004-02-18 08:41:48 51°9.505 2°36.469 284.1 0.6 180 17.2
2004-02-18 08:42:48 51°9.493 2°36.467 281.8 0.7 183 17.6
2004-02-18 08:43:48 51°9.481 2°36.467 283.4 0.5 178 17.9
2004-02-18 08:44:49 51°9.469 2°36.466 281.3 0.6 184 17.4
2004-02-18 08:45:48 51°9.458 2°36.464 283.1 0.6 190 17.6
2004-02-18 08:46:49 51°9.446 2°36.46 281.6 0.8 196 17.8
2004-02-18 08:47:48 51°9.436 2°36.456 287.8 1 229 17.3
2004-02-18 08:48:48 51°9.474 2°36.335 305.3 9.4 299 18.1
2004-02-18 08:49:49 51°9.572 2°36.045 303.1 13.3 298 18.2
2004-02-18 08:50:48 51°9.677 2°35.742 303.2 13.5 300 19.7
2004-02-18 08:51:49 51°9.849 2°35.519 333.8 13 334 19.8
2004-02-18 08:52:48 51°10.046 2°35.383 342 13.2 338 13.1
2004-02-18 08:53:48 51°10.256 2°35.318 7.8 13.4 6 13.1
2004-02-18 08:54:48 51°10.462 2°35.458 36.6 13.8 34 12
2004-02-18 08:55:49 51°10.653 2°35.673 37.9 13.8 36 12.1
2004-02-18 08:56:49 51°10.839 2°35.882 37.6 13.8 36 12.3
2004-02-18 08:57:48 51°11.022 2°36.092 38.9 13.7 37 12.6
2004-02-18 08:58:48 51°11.209 2°36.306 38.4 13.8 36 12.9
2004-02-18 08:59:49 51°11.398 2°36.524 38.7 13.6 36 13
2004-02-18 09:00:49 51°11.577 2°36.736 39.3 13.7 36 13.2
2004-02-18 09:01:48 51°11.757 2°36.947 38.5 13.7 36 13.4
2004-02-18 09:02:48 51°11.942 2°37.162 38.9 13.8 37 13.5
2004-02-18 09:03:49 51°12.13 2°37.376 35.5 13.7 32 13.4
2004-02-18 09:04:48 51°12.321 2°37.566 34.6 13.7 31 13.7
2004-02-18 09:05:49 51°12.519 2°37.764 35.5 13.6 33 14.5
2004-02-18 09:06:48 51°12.708 2°37.957 34.8 13.9 32 14.6
2004-02-18 09:07:49 51°12.905 2°38.157 35.5 13.8 33 15.2
2004-02-18 09:08:48 51°13.094 2°38.354 35.5 13.8 32 16
2004-02-18 09:09:48 51°13.298 2°38.521 24.9 13.8 21 16.2
2004-02-18 09:10:49 51°13.517 2°38.629 16.9 13.5 14 16.2
2004-02-18 09:11:48 51°13.732 2°38.699 12.7 13.4 9 15.8
2004-02-18 09:12:49 51°13.955 2°38.756 12.7 13.2 8 14.4
2004-02-18 09:13:48 51°14.135 2°38.637 313.4 12.2 300 16
2004-02-18 09:14:48 51°14.098 2°38.317 249.6 13.6 242 19.4
2004-02-18 09:15:49 51°14.011 2°37.978 255.7 13.7 252 19.9
2004-02-18 09:16:48 51°13.93 2°37.651 254.6 13.4 248 20.3
2004-02-18 09:17:49 51°13.843 2°37.317 253.7 13.4 244 21.5
2004-02-18 09:18:48 51°13.764 2°36.996 253 12.8 250 22.3
2004-02-18 09:19:48 51°13.688 2°36.671 255 12.7 244 21.5
2004-02-18 09:20:49 51°13.609 2°36.342 254.5 12.7 250 21.6
2004-02-18 09:21:49 51°13.53 2°36.021 251.1 12.7 244 20.1
2004-02-18 09:22:49 51°13.454 2°35.696 254 13.6 246 19.6
2004-02-18 09:23:48 51°13.379 2°35.383 255.2 12.7 250 19.1
2004-02-18 09:24:48 51°13.302 2°35.065 253.5 13 250 18.9
2004-02-18 09:25:48 51°13.225 2°34.749 252.8 12.9 249 19
2004-02-18 09:26:48 51°13.145 2°34.429 256.3 13 245 18.3
2004-02-18 09:27:49 51°13.057 2°34.11 251.9 13.1 247 17.4
2004-02-18 09:28:49 51°12.969 2°33.797 252.3 12.9 247 16.2
2004-02-18 09:29:49 51°12.88 2°33.48 253.5 12.8 248 16.8
2004-02-18 09:30:49 51°12.785 2°33.169 247.5 12.7 244 18.6
2004-02-18 09:31:49 51°12.688 2°32.868 247.5 12.9 241 20.1
2004-02-18 09:32:48 51°12.591 2°32.571 246.7 12.8 236 21.2
2004-02-18 09:33:48 51°12.494 2°32.27 245.9 12.8 243 23.3
2004-02-18 09:34:48 51°12.396 2°31.966 248.7 13.2 243 24.4
2004-02-18 09:35:49 51°12.295 2°31.647 249.5 13.3 244 25.2
2004-02-18 09:36:49 51°12.198 2°31.333 247.5 13.5 244 25.6
2004-02-18 09:37:49 51°12.098 2°31.022 249.4 13 242 25.6
2004-02-18 09:38:50 51°11.999 2°30.706 245.8 13.4 238 24.6
2004-02-18 09:39:49 51°11.904 2°30.408 247.4 13.1 245 24.7
2004-02-18 09:40:49 51°11.81 2°30.101 247.7 12.9 242 25
2004-02-18 09:41:49 51°11.721 2°29.802 249.1 12.7 245 25.4
2004-02-18 09:42:49 51°11.664 2°29.567 257.2 6.5 253 24.9
2004-02-18 09:43:49 51°11.631 2°29.44 252.1 6.1 247 25.8
2004-02-18 09:44:48 51°11.57 2°29.254 248.7 9 246 27.2
2004-02-18 09:45:48 51°11.496 2°29.018 250.8 11.3 242 26.7
2004-02-18 09:46:49 51°11.425 2°28.714 253.6 12.5 247 26.1
2004-02-18 09:47:49 51°11.355 2°28.413 256.1 12.3 254 25.1
2004-02-18 09:48:48 51°11.291 2°28.111 257.6 12.7 255 24.6
2004-02-18 09:49:49 51°11.238 2°27.789 261.4 12.1 255 25.6
2004-02-18 09:50:49 51°11.185 2°27.474 259.5 12.5 257 25.1
2004-02-18 09:51:49 51°11.134 2°27.154 261.7 12.4 260 24.3
2004-02-18 09:52:49 51°11.098 2°26.83 266.2 12.1 261 25.3
2004-02-18 09:53:49 51°11.108 2°26.507 284.5 12.4 282 22.8
2004-02-18 09:54:48 51°11.181 2°26.204 300.9 12.6 301 18.6
2004-02-18 09:55:49 51°11.304 2°25.93 307.5 12.6 302 14.5
2004-02-18 09:56:48 51°11.459 2°25.717 332.2 12.6 334 19.4
2004-02-18 09:57:49 51°11.682 2°25.692 1.7 13.8 1 25.9
2004-02-18 09:58:48 51°11.912 2°25.739 12 14.3 13 27.1
2004-02-18 09:59:49 51°12.137 2°25.876 26.7 14.3 25 27.2
2004-02-18 10:00:48 51°12.349 2°26.031 26.1 14.4 24 28.4
2004-02-18 10:01:49 51°12.559 2°26.207 32.6 14.2 31 28.1
2004-02-18 10:02:49 51°12.765 2°26.397 31.7 14.1 30 27.6
2004-02-18 10:03:49 51°12.968 2°26.589 34.3 14.5 32 27.7
2004-02-18 10:04:49 51°13.169 2°26.788 34.1 14.2 32 28.3
2004-02-18 10:05:49 51°13.364 2°26.981 33 13.6 30 28.6
2004-02-18 10:06:49 51°13.559 2°27.194 37 14.2 35 28.9
2004-02-18 10:07:49 51°13.755 2°27.411 36.1 14.2 35 28.4
2004-02-18 10:08:50 51°13.953 2°27.631 36.4 14.3 35 28.9
2004-02-18 10:09:49 51°14.141 2°27.844 36.4 14.3 36 29.3
2004-02-18 10:10:49 51°14.329 2°28.071 39.5 14.2 38 29.7
2004-02-18 10:11:49 51°14.518 2°28.301 40 14.2 39 29.9
2004-02-18 10:12:48 51°14.705 2°28.529 38.9 14.3 38 30.2
2004-02-18 10:13:49 51°14.896 2°28.764 39.6 14.3 37 30.8
2004-02-18 10:14:49 51°15.086 2°28.997 39.8 14.5 38 30.9
2004-02-18 10:15:49 51°15.275 2°29.23 39.8 13.9 38 30.5
2004-02-18 10:16:49 51°15.466 2°29.454 36.4 14.3 35 31
2004-02-18 10:17:49 51°15.662 2°29.677 37.3 14.2 36 30.8
2004-02-18 10:18:49 51°15.855 2°29.9 37 14.5 36 31
2004-02-18 10:19:49 51°16.047 2°30.123 39.1 14.1 39 31.1
2004-02-18 10:20:49 51°16.23 2°30.363 41.6 14.2 39 31.2
2004-02-18 10:21:49 51°16.412 2°30.604 41.3 14.1 40 30.4
2004-02-18 10:22:48 51°16.588 2°30.84 40.7 14.3 40 30.3
2004-02-18 10:23:48 51°16.77 2°31.083 40.9 14.1 42 30.7
2004-02-18 10:24:49 51°16.946 2°31.344 44.4 14.2 43 29.9
2004-02-18 10:25:49 51°17.115 2°31.599 44.1 14.2 43 29.1
2004-02-18 10:26:49 51°17.293 2°31.858 45.2 14.4 41 27.7
2004-02-18 10:27:49 51°17.47 2°32.118 44.3 14.2 42 28.2
2004-02-18 10:28:48 51°17.64 2°32.37 43.8 14.4 44 27.2
2004-02-18 10:29:49 51°17.821 2°32.633 44.3 14.2 43 26.4
2004-02-18 10:30:48 51°17.997 2°32.887 44.2 14.1 42 24.8
2004-02-18 10:31:49 51°18.175 2°33.148 43.7 14.6 43 22.9
2004-02-18 10:32:49 51°18.348 2°33.403 44.2 13.8 44 20.9
2004-02-18 10:33:49 51°18.522 2°33.656 43.8 14.6 41 18.6
2004-02-18 10:34:48 51°18.695 2°33.911 44.1 14 45 20
2004-02-18 10:35:48 51°18.868 2°34.166 43 14.4 44 18.9
2004-02-18 10:36:49 51°19.049 2°34.426 44.1 14.4 41 19.2
2004-02-18 10:37:49 51°19.226 2°34.683 44.3 14.3 44 19.2
2004-02-18 10:38:49 51°19.404 2°34.943 45.3 14.1 47 17.9
2004-02-18 10:39:48 51°19.539 2°35.257 59.9 14.7 57 20.9
2004-02-18 10:40:48 51°19.66 2°35.596 68.9 14.6 67 21.9
2004-02-18 10:41:48 51°19.736 2°35.971 80.6 15.1 76 23.9
2004-02-18 10:42:49 51°19.784 2°36.368 86 14.8 78 24
2004-02-18 10:43:48 51°19.822 2°36.753 85.3 15.1 80 22.3
2004-02-18 10:44:49 51°19.865 2°37.149 85.2 14.8 80 23
2004-02-18 10:45:49 51°19.907 2°37.54 84.9 14.8 80 24.7
2004-02-18 10:46:48 51°19.946 2°37.919 85.6 14.7 84 24.9
2004-02-18 10:47:49 51°19.983 2°38.315 88.2 14.8 79 25.9
2004-02-18 10:48:49 51°20.003 2°38.708 92.2 14.8 87 26.3
2004-02-18 10:49:48 51°20.022 2°39.095 90.6 14.7 86 27.2
2004-02-18 10:50:49 51°20.042 2°39.488 89.9 14.7 84 30.2
2004-02-18 10:51:49 51°20.065 2°39.877 89.4 14.8 82 31.4
2004-02-18 10:52:48 51°20.089 2°40.257 89.1 14.7 82 30.5
2004-02-18 10:53:49 51°20.119 2°40.649 91.1 14.7 86 30.6
2004-02-18 10:54:48 51°20.146 2°41.031 90.6 14.9 80 22.3
2004-02-18 10:55:48 51°20.17 2°41.425 90.6 15.2 85 24.2
2004-02-18 10:56:49 51°20.193 2°41.824 91.4 14.9 83 19.9
2004-02-18 10:57:48 51°20.216 2°42.212 90.3 14.8 83 20.5
2004-02-18 10:58:49 51°20.241 2°42.61 89.2 14.8 85 25.7
2004-02-18 10:59:48 51°20.26 2°42.998 95.3 14.9 89 28.4
2004-02-18 11:00:49 51°20.265 2°43.402 96.9 14.9 89 28.4
2004-02-18 11:01:49 51°20.273 2°43.797 93.6 14.6 86 28.6
2004-02-18 11:02:48 51°20.28 2°44.187 94.4 14.9 89 29
2004-02-18 11:03:49 51°20.285 2°44.592 96.2 15.1 91 28.2
2004-02-18 11:04:49 51°20.291 2°44.988 95.4 14.8 86 26.6
2004-02-18 11:05:48 51°20.294 2°45.372 95.6 14.8 86 24.8
2004-02-18 11:06:48 51°20.297 2°45.764 99.6 14.8 95 24.3
2004-02-18 11:07:49 51°20.205 2°46.127 127.8 14.7 123 20
2004-02-18 11:08:49 51°20.074 2°46.455 128.8 14.9 121 17.3
2004-02-18 11:09:49 51°19.934 2°46.77 133.9 15 130 21.1
2004-02-18 11:10:49 51°19.801 2°47.088 131.3 14.7 126 23.5
2004-02-18 11:11:49 51°19.67 2°47.397 130.5 13.7 127 24
2004-02-18 11:12:48 51°19.537 2°47.699 135.5 14.5 123 24.1
2004-02-18 11:13:48 51°19.401 2°48.005 132.8 13.4 133 22.7
2004-02-18 11:14:48 51°19.264 2°48.309 132.9 14.4 128 20.5
2004-02-18 11:15:48 51°19.129 2°48.618 136.7 14.7 123 17.8
2004-02-18 11:16:49 51°18.99 2°48.931 133.5 14.9 120 15.5
2004-02-18 11:17:50 51°18.851 2°49.245 136.4 14.8 121 14
2004-02-18 11:18:49 51°18.713 2°49.545 132.6 14.4 125 13.4
2004-02-18 11:19:48 51°18.574 2°49.843 132 13.8 131 15.5
2004-02-18 11:20:48 51°18.437 2°50.151 134.1 13.3 131 16.8
2004-02-18 11:21:49 51°18.304 2°50.466 133.9 14.2 128 16.6
2004-02-18 11:22:48 51°18.173 2°50.767 128.7 13.9 121 15.7
2004-02-18 11:23:49 51°18.037 2°51.081 134.1 14 124 14.7
2004-02-18 11:24:50 51°17.898 2°51.392 135.7 14.1 129 13.2
2004-02-18 11:25:49 51°17.764 2°51.683 135 13.8 129 12.7
2004-02-18 11:26:49 51°17.628 2°51.985 132.6 14.2 121 13
2004-02-18 11:27:49 51°17.476 2°52.255 152 14.1 145 12.9
2004-02-18 11:28:50 51°17.289 2°52.466 152.4 13.2 145 12.9
2004-02-18 11:29:48 51°17.106 2°52.659 151.9 13 147 12.4
2004-02-18 11:30:48 51°16.918 2°52.858 153 13.4 144 11.9
2004-02-18 11:31:49 51°16.707 2°52.995 165.9 14.5 157 13.7
2004-02-18 11:32:49 51°16.492 2°53.087 175.4 13 171 14.9
2004-02-18 11:33:48 51°16.275 2°53.152 181 13.6 168 15
2004-02-18 11:34:48 51°16.06 2°53.226 173.9 11.8 168 14.8
2004-02-18 11:35:50 51°15.836 2°53.298 174.6 13.2 168 14.2
2004-02-18 11:36:48 51°15.63 2°53.374 168.9 13.4 164 13.8
2004-02-18 11:37:48 51°15.418 2°53.479 170 13.4 164 13
2004-02-18 11:38:49 51°15.204 2°53.61 165 13.2 158 12.4
2004-02-18 11:39:50 51°14.993 2°53.766 161.7 14 155 12.4
2004-02-18 11:40:50 51°14.804 2°53.903 162.7 10.4 156 12.6
2004-02-18 11:41:50 51°14.694 2°53.989 168.1 5.3 157 13.8
2004-02-18 11:42:50 51°14.631 2°54.032 174.9 3.5 155 14.2
2004-02-18 11:43:49 51°14.589 2°54.073 163 2.8 139 14
2004-02-18 11:44:50 51°14.564 2°54.131 145.3 2.5 117 13.9
2004-02-18 11:45:49 51°14.549 2°54.19 129.6 2.5 109 13.8
2004-02-18 11:46:49 51°14.526 2°54.329 111.7 9.3 105 13.8
2004-02-18 11:47:48 51°14.462 2°54.629 114.5 14 106 13.4
2004-02-18 11:48:49 51°14.38 2°54.984 114.6 13.2 117 12.9
2004-02-18 11:49:50 51°14.268 2°55.264 130.8 11.3 128 13.2
2004-02-18 11:50:49 51°14.128 2°55.402 157.1 9.7 157 12.1
2004-02-18 11:51:49 51°13.978 2°55.512 154.5 9.6 152 12.1